Time;durP1;ratioP1;P1;durP2;ratioP2;P2;SDS_P1;SDS_P2;PMS_P1;PMS_P2;Temp;Humidity;BMP_temperature;BMP_pressure;BME280_temperature;BME280_humidity;BME280_pressure;Samples;Min_cycle;Max_cycle;Signal;HPM_P1;HPM_P2
2022/10/19 00:01:13;;;;;;;11.13;1.03;;;12.20;99.90;;;;;;5074641;28;20436;-73
2022/10/19 00:03:40;;;;;;;5.83;1.37;;;12.20;99.90;;;;;;5073426;28;20462;-71
2022/10/19 00:06:15;;;;;;;5.57;1.47;;;12.20;99.90;;;;;;5074620;28;20446;-72
2022/10/19 00:08:42;;;;;;;3.23;1.70;;;12.10;99.90;;;;;;5074614;28;20407;-70
2022/10/19 00:11:08;;;;;;;3.60;1.27;;;12.10;99.90;;;;;;5074544;28;20470;-70
2022/10/19 00:13:34;;;;;;;1.43;1.27;;;12.10;99.90;;;;;;5072342;28;20436;-70
2022/10/19 00:16:01;;;;;;;3.00;1.13;;;12.10;99.90;;;;;;5072468;28;20492;-70
2022/10/19 00:18:26;;;;;;;1.20;1.10;;;12.10;99.90;;;;;;5073836;28;20375;-73
2022/10/19 00:20:52;;;;;;;2.30;1.00;;;12.10;99.90;;;;;;5074321;28;20432;-71
2022/10/19 00:23:17;;;;;;;6.20;1.77;;;12.10;99.90;;;;;;5074412;28;20496;-71
2022/10/19 00:25:54;;;;;;;4.87;1.20;;;12.10;99.90;;;;;;5072383;28;20309;-70
2022/10/19 00:28:19;;;;;;;3.30;1.40;;;12.10;99.90;;;;;;5074128;28;20174;-71
2022/10/19 00:30:45;;;;;;;3.07;1.03;;;12.10;99.90;;;;;;5074060;28;20379;-72
2022/10/19 00:33:10;;;;;;;2.13;1.60;;;12.10;99.90;;;;;;5074254;28;20163;-69
2022/10/19 00:35:39;;;;;;;6.30;1.63;;;12.10;99.90;;;;;;5072520;28;20201;-70
2022/10/19 00:38:05;;;;;;;5.20;1.40;;;12.10;99.90;;;;;;5074048;28;20619;-71
2022/10/19 00:40:37;;;;;;;2.90;1.23;;;12.20;99.90;;;;;;5064883;28;20494;-72
2022/10/19 00:43:03;;;;;;;2.00;1.10;;;12.20;99.90;;;;;;5057060;28;20438;-70
2022/10/19 00:45:28;;;;;;;3.00;1.23;;;12.20;99.90;;;;;;5066599;28;20841;-70
2022/10/19 00:47:54;;;;;;;2.50;1.37;;;12.20;99.90;;;;;;5054106;28;20201;-70
2022/10/19 00:50:20;;;;;;;3.30;1.90;;;12.10;99.90;;;;;;5054082;28;20182;-71
2022/10/19 00:52:46;;;;;;;2.93;1.67;;;12.10;99.90;;;;;;5053794;28;20387;-72
2022/10/19 00:55:12;;;;;;;6.53;1.73;;;12.00;99.90;;;;;;5052276;28;20682;-72
2022/10/19 00:57:39;;;;;;;5.47;1.10;;;12.00;95.70;;;;;;5052572;28;20170;-70
2022/10/19 01:00:06;;;;;;;5.20;1.33;;;12.00;99.90;;;;;;5057410;28;20529;-71
2022/10/19 01:02:32;;;;;;;2.60;2.13;;;12.10;99.60;;;;;;5073617;28;20424;-70
2022/10/19 01:04:58;;;;;;;4.23;1.67;;;12.10;98.50;;;;;;5072451;28;20726;-70
2022/10/19 01:07:25;;;;;;;4.23;1.20;;;12.00;99.50;;;;;;5073005;28;20169;-70
2022/10/19 01:09:51;;;;;;;4.30;1.63;;;12.10;97.00;;;;;;5073614;28;20432;-71
2022/10/19 01:12:32;;;;;;;4.23;1.40;;;12.10;94.20;;;;;;5073421;28;20389;-70
2022/10/19 01:15:21;;;;;;;4.97;1.40;;;12.00;93.10;;;;;;5052726;28;20432;-71
2022/10/19 01:18:04;;;;;;;10.23;2.00;;;12.00;99.90;;;;;;5053543;28;20396;-71
2022/10/19 01:20:42;;;;;;;1.97;1.30;;;12.00;97.00;;;;;;5054676;28;20389;-71
2022/10/19 01:23:26;;;;;;;6.60;1.37;;;12.10;94.60;;;;;;5073322;28;20411;-72
2022/10/19 01:25:55;;;;;;;2.13;1.40;;;12.10;94.30;;;;;;5072738;28;20420;-70
2022/10/19 01:29:07;;;;;;;4.47;1.53;;;12.10;93.70;;;;;;5073426;28;20908;-71
2022/10/19 01:31:53;;;;;;;4.83;1.70;;;12.10;93.00;;;;;;5072870;28;20408;-71
2022/10/19 01:34:29;;;;;;;6.70;2.03;;;12.10;93.00;;;;;;5072474;28;20411;-71
2022/10/19 01:37:22;;;;;;;3.53;1.43;;;12.10;92.90;;;;;;5056703;28;20465;-70
2022/10/19 01:40:16;;;;;;;5.23;1.50;;;12.00;95.20;;;;;;5053213;28;20409;-73
2022/10/19 01:42:51;;;;;;;2.97;1.90;;;12.10;94.00;;;;;;5043925;28;20475;-70
2022/10/19 01:45:30;;;;;;;2.77;1.70;;;12.10;92.80;;;;;;5052010;28;20511;-73
2022/10/19 01:48:03;;;;;;;5.63;2.30;;;12.10;93.50;;;;;;5066345;28;20428;-72
2022/10/19 01:50:44;;;;;;;2.83;1.87;;;12.00;92.80;;;;;;5072668;28;20400;-72
2022/10/19 01:53:12;;;;;;;3.53;1.40;;;12.10;92.80;;;;;;5071896;28;20511;-72
2022/10/19 01:55:41;;;;;;;7.20;2.07;;;12.10;93.70;;;;;;5070834;28;20456;-71
2022/10/19 01:58:12;;;;;;;11.57;2.10;;;12.00;93.10;;;;;;5073172;28;20408;-71
2022/10/19 02:00:41;;;;;;;8.33;2.53;;;12.00;92.70;;;;;;5073086;28;20378;-69
2022/10/19 02:03:09;;;;;;;6.57;2.03;;;12.00;92.80;;;;;;5071615;28;20424;-70
2022/10/19 02:05:35;;;;;;;5.73;1.50;;;11.90;92.70;;;;;;5072056;28;20450;-72
2022/10/19 02:08:23;;;;;;;4.50;1.30;;;11.90;92.70;;;;;;5073010;28;20466;-73
2022/10/19 02:10:50;;;;;;;6.03;1.80;;;12.00;92.80;;;;;;5072618;28;20797;-72
2022/10/19 02:13:16;;;;;;;9.60;2.47;;;12.00;92.80;;;;;;5071882;28;20507;-70
2022/10/19 02:15:46;;;;;;;2.37;1.30;;;12.00;92.70;;;;;;5071868;28;20456;-71
2022/10/19 02:18:17;;;;;;;1.53;1.43;;;12.00;90.30;;;;;;5070813;28;21228;-71
2022/10/19 02:20:43;;;;;;;2.83;1.80;;;12.00;90.20;;;;;;5056631;28;20454;-71
2022/10/19 02:23:09;;;;;;;3.50;1.60;;;12.00;87.60;;;;;;5056696;28;20732;-72
2022/10/19 02:25:35;;;;;;;4.73;1.30;;;12.00;89.30;;;;;;5055525;28;20793;-70
2022/10/19 02:28:02;;;;;;;8.63;2.03;;;12.00;81.80;;;;;;5056205;28;20206;-70
2022/10/19 02:30:28;;;;;;;2.60;1.60;;;12.00;80.40;;;;;;5056633;28;20389;-71
2022/10/19 02:32:54;;;;;;;2.53;1.43;;;12.00;84.10;;;;;;5073441;28;20428;-70
2022/10/19 02:35:19;;;;;;;4.87;2.47;;;12.10;87.10;;;;;;5075138;28;20210;-71
2022/10/19 02:37:45;;;;;;;5.13;2.13;;;12.00;91.40;;;;;;5076233;28;20174;-70
2022/10/19 02:40:11;;;;;;;3.80;1.30;;;12.00;92.10;;;;;;5076626;28;20244;-70
2022/10/19 02:42:49;;;;;;;6.20;1.20;;;11.90;68.60;;;;;;5076474;28;20166;-71
2022/10/19 02:45:34;;;;;;;3.00;1.23;;;11.70;68.80;;;;;;5074904;28;20398;-71
2022/10/19 02:48:03;;;;;;;7.10;2.10;;;11.70;66.90;;;;;;5075990;28;20745;-70
2022/10/19 02:50:29;;;;;;;5.27;1.60;;;11.60;63.20;;;;;;5076499;28;20732;-70
2022/10/19 02:52:58;;;;;;;2.73;1.37;;;11.50;65.10;;;;;;5076235;28;20466;-70
2022/10/19 02:55:24;;;;;;;5.30;1.37;;;11.40;59.50;;;;;;5075114;28;20773;-73
2022/10/19 02:57:49;;;;;;;4.60;1.13;;;11.30;60.50;;;;;;5075086;28;20431;-72
2022/10/19 03:00:15;;;;;;;5.63;1.50;;;11.20;56.30;;;;;;5070590;28;20483;-73
2022/10/19 03:02:41;;;;;;;4.20;1.93;;;11.10;62.00;;;;;;5055399;28;20539;-73
2022/10/19 03:05:07;;;;;;;7.33;1.63;;;11.00;61.70;;;;;;5054999;28;20171;-73
2022/10/19 03:07:33;;;;;;;5.43;1.47;;;10.90;60.60;;;;;;5055891;28;20247;-74
2022/10/19 03:09:58;;;;;;;4.13;1.40;;;10.90;61.90;;;;;;5055714;28;20375;-72
2022/10/19 03:12:24;;;;;;;8.27;2.10;;;10.80;56.20;;;;;;5055917;28;20628;-72
2022/10/19 03:14:50;;;;;;;2.63;1.23;;;10.70;67.00;;;;;;5060165;28;20560;-74
2022/10/19 03:17:15;;;;;;;2.43;1.47;;;10.70;72.80;;;;;;5055419;28;20203;-74
2022/10/19 03:19:41;;;;;;;4.83;2.00;;;10.60;72.80;;;;;;5054410;28;20535;-74
2022/10/19 03:22:07;;;;;;;4.83;1.60;;;10.60;79.60;;;;;;5054482;28;20183;-75
2022/10/19 03:24:33;;;;;;;4.27;1.77;;;10.60;88.10;;;;;;5054740;28;20209;-72
2022/10/19 03:26:58;;;;;;;2.53;1.53;;;10.60;92.10;;;;;;5055369;28;20407;-73
2022/10/19 03:29:24;;;;;;;5.80;1.80;;;10.60;92.30;;;;;;5061805;28;20459;-73
2022/10/19 03:31:50;;;;;;;3.73;1.57;;;10.70;92.30;;;;;;5075333;28;20186;-72
2022/10/19 03:34:15;;;;;;;7.47;2.00;;;10.70;93.40;;;;;;5069180;28;20297;-74
2022/10/19 03:36:41;;;;;;;6.90;1.90;;;10.80;92.30;;;;;;5054731;28;20211;-72
2022/10/19 03:39:11;;;;;;;3.20;1.47;;;10.90;94.30;;;;;;5055279;28;20245;-72
2022/10/19 03:41:37;;;;;;;7.47;2.03;;;10.90;92.50;;;;;;5055106;28;20173;-72
2022/10/19 03:44:04;;;;;;;3.57;1.63;;;10.90;94.00;;;;;;5062452;28;20468;-74
2022/10/19 03:46:30;;;;;;;3.97;2.07;;;10.90;92.40;;;;;;5070593;28;20465;-73
2022/10/19 03:48:55;;;;;;;2.97;1.77;;;11.00;99.90;;;;;;5055059;28;20796;-71
2022/10/19 03:51:24;;;;;;;7.70;1.97;;;11.00;93.40;;;;;;5055183;28;20205;-73
2022/10/19 03:54:03;;;;;;;4.80;1.93;;;11.10;99.90;;;;;;5052852;28;20627;-71
2022/10/19 03:56:29;;;;;;;5.90;3.10;;;11.10;99.90;;;;;;5053699;28;20943;-73
2022/10/19 03:58:56;;;;;;;3.37;2.30;;;11.10;99.90;;;;;;5055142;28;20372;-72
2022/10/19 04:01:25;;;;;;;3.87;2.10;;;11.10;99.90;;;;;;5054904;28;20412;-73
2022/10/19 04:03:55;;;;;;;21.10;4.17;;;11.10;99.90;;;;;;5053749;28;20396;-74
2022/10/19 04:06:25;;;;;;;9.20;1.60;;;11.10;99.90;;;;;;5053688;28;20412;-74
2022/10/19 04:08:50;;;;;;;5.90;2.10;;;11.10;99.90;;;;;;5054757;28;20452;-71
2022/10/19 04:11:19;;;;;;;9.00;2.13;;;11.10;99.90;;;;;;5065701;28;20444;-71
2022/10/19 04:13:48;;;;;;;7.70;1.70;;;11.20;99.90;;;;;;5071953;28;20185;-72
2022/10/19 04:16:13;;;;;;;11.17;1.83;;;11.20;99.90;;;;;;5074280;28;20539;-69
2022/10/19 04:18:39;;;;;;;8.87;2.80;;;11.30;99.90;;;;;;5074391;28;20953;-71
2022/10/19 04:21:05;;;;;;;11.47;2.33;;;11.20;99.90;;;;;;5074467;28;20198;-71
2022/10/19 04:23:33;;;;;;;6.13;2.20;;;11.30;99.90;;;;;;5073960;28;20193;-73
2022/10/19 04:26:05;;;;;;;10.00;2.77;;;11.30;99.90;;;;;;5072796;28;20463;-71
2022/10/19 04:28:31;;;;;;;7.23;1.97;;;11.30;99.90;;;;;;5073269;28;20404;-72
2022/10/19 04:31:01;;;;;;;6.83;2.23;;;11.40;99.90;;;;;;5089392;28;20939;-69
2022/10/19 04:33:26;;;;;;;4.93;2.30;;;11.40;99.90;;;;;;5073838;28;20404;-73
2022/10/19 04:35:59;;;;;;;4.50;2.00;;;11.40;99.90;;;;;;5072211;28;20807;-71
2022/10/19 04:38:25;;;;;;;5.63;2.03;;;11.40;99.90;;;;;;5073948;28;20280;-70
2022/10/19 04:40:51;;;;;;;3.30;2.00;;;11.40;99.90;;;;;;5058968;28;20494;-72
2022/10/19 04:43:17;;;;;;;5.23;2.10;;;11.40;99.90;;;;;;5054044;28;20186;-69
2022/10/19 04:45:42;;;;;;;6.80;2.07;;;11.40;99.90;;;;;;5052923;28;20415;-70
2022/10/19 04:48:08;;;;;;;6.93;2.13;;;11.40;99.90;;;;;;5053495;28;20264;-71
2022/10/19 04:50:34;;;;;;;5.60;1.80;;;11.50;99.90;;;;;;5053685;28;20179;-71
2022/10/19 04:52:59;;;;;;;4.30;1.83;;;11.50;99.90;;;;;;5053850;28;20528;-71
2022/10/19 04:55:25;;;;;;;11.60;5.90;;;11.50;99.90;;;;;;5062958;28;20294;-73
2022/10/19 04:57:50;;;;;;;3.90;2.30;;;11.50;99.90;;;;;;5073847;28;20265;-71
2022/10/19 05:00:16;;;;;;;7.03;1.70;;;11.50;99.90;;;;;;5072460;28;20265;-73
2022/10/19 05:02:43;;;;;;;6.30;2.17;;;11.50;99.90;;;;;;5073566;28;20197;-71
2022/10/19 05:05:09;;;;;;;4.07;1.40;;;11.40;99.90;;;;;;5072172;28;20179;-70
2022/10/19 05:07:35;;;;;;;10.93;1.67;;;11.50;99.90;;;;;;5073582;28;20375;-70
2022/10/19 05:10:01;;;;;;;6.63;2.13;;;11.50;99.90;;;;;;5062192;28;20478;-71
2022/10/19 05:12:26;;;;;;;7.30;2.03;;;11.40;99.90;;;;;;5054356;28;20185;-71
2022/10/19 05:14:52;;;;;;;5.07;2.37;;;11.30;99.90;;;;;;5065413;28;20626;-72
2022/10/19 05:17:17;;;;;;;9.00;2.97;;;11.30;98.70;;;;;;5073556;28;20293;-71
2022/10/19 05:19:43;;;;;;;5.10;1.90;;;11.30;99.90;;;;;;5073415;28;20168;-71
2022/10/19 05:22:09;;;;;;;8.20;2.20;;;11.20;96.20;;;;;;5073702;28;20241;-69
2022/10/19 05:24:34;;;;;;;10.90;2.93;;;11.20;99.90;;;;;;5053021;28;20210;-70
2022/10/19 05:27:00;;;;;;;8.13;3.37;;;11.10;99.90;;;;;;5053060;28;20202;-75
2022/10/19 05:29:27;;;;;;;3.90;2.53;;;11.10;99.90;;;;;;5053331;28;20218;-72
2022/10/19 05:31:52;;;;;;;5.20;2.43;;;11.10;99.90;;;;;;5053401;28;20179;-71
2022/10/19 05:34:18;;;;;;;5.53;2.70;;;11.10;99.90;;;;;;5052365;28;20379;-76
2022/10/19 05:36:44;;;;;;;8.20;2.40;;;11.00;98.80;;;;;;5068419;28;20601;-72
2022/10/19 05:39:15;;;;;;;8.17;2.10;;;11.00;99.90;;;;;;5053088;28;20309;-74
2022/10/19 05:41:43;;;;;;;7.20;2.03;;;11.00;99.90;;;;;;5053198;28;20159;-74
2022/10/19 05:44:18;;;;;;;4.70;3.23;;;11.00;99.90;;;;;;5056215;28;20794;-74
2022/10/19 05:46:44;;;;;;;4.43;2.20;;;10.90;98.60;;;;;;5052895;28;20971;-74
2022/10/19 05:49:11;;;;;;;7.90;2.63;;;10.80;99.90;;;;;;5052724;28;20519;-73
2022/10/19 05:51:37;;;;;;;4.53;2.10;;;10.70;99.90;;;;;;5053321;28;20461;-74
2022/10/19 05:54:03;;;;;;;7.90;2.10;;;10.70;99.90;;;;;;5071495;28;20950;-72
2022/10/19 05:56:31;;;;;;;9.03;2.47;;;10.60;99.90;;;;;;5072497;28;20459;-72
2022/10/19 05:58:58;;;;;;;9.47;2.53;;;10.50;99.90;;;;;;5056802;28;20429;-74
2022/10/19 06:01:25;;;;;;;3.10;1.90;;;10.40;97.10;;;;;;5056706;28;20841;-73
2022/10/19 06:03:52;;;;;;;2.70;2.43;;;10.40;98.20;;;;;;5058904;28;20444;-72
2022/10/19 06:06:18;;;;;;;8.97;3.00;;;10.30;99.90;;;;;;5077084;28;20470;-74
2022/10/19 06:08:44;;;;;;;2.83;1.90;;;10.20;94.40;;;;;;5076983;28;20450;-71
2022/10/19 06:11:16;;;;;;;6.63;2.40;;;10.20;99.80;;;;;;5076784;28;20416;-76
2022/10/19 06:13:43;;;;;;;11.70;5.53;;;10.10;95.50;;;;;;5075016;28;20383;-75
2022/10/19 06:16:11;;;;;;;7.50;4.27;;;10.10;97.90;;;;;;5076653;28;20783;-72
2022/10/19 06:18:37;;;;;;;9.23;4.83;;;10.00;99.90;;;;;;5075456;28;20437;-73
2022/10/19 06:21:10;;;;;;;10.83;5.27;;;10.00;99.40;;;;;;5076580;28;20422;-75
2022/10/19 06:23:37;;;;;;;7.43;4.10;;;10.00;99.20;;;;;;5075088;28;20735;-79
2022/10/19 06:26:06;;;;;;;12.00;4.77;;;10.10;99.90;;;;;;5076488;28;20410;-74
2022/10/19 06:28:31;;;;;;;7.07;2.90;;;10.10;99.90;;;;;;5075257;28;20929;-74
2022/10/19 06:30:58;;;;;;;10.00;2.90;;;10.20;99.90;;;;;;5076538;28;20436;-74
2022/10/19 06:33:24;;;;;;;4.73;2.67;;;10.20;99.90;;;;;;5076185;28;20177;-75
2022/10/19 06:35:49;;;;;;;10.93;2.40;;;10.20;99.90;;;;;;5075518;28;20448;-72
2022/10/19 06:38:15;;;;;;;5.80;2.57;;;10.30;99.90;;;;;;5063591;28;20436;-72
2022/10/19 06:40:41;;;;;;;7.30;2.53;;;10.30;99.90;;;;;;5056340;28;20225;-74
2022/10/19 06:43:07;;;;;;;5.63;2.30;;;10.40;99.90;;;;;;5055003;28;20651;-74
2022/10/19 06:45:32;;;;;;;5.10;2.67;;;10.50;99.90;;;;;;5055139;28;21025;-74
2022/10/19 06:48:00;;;;;;;6.10;2.27;;;10.50;99.90;;;;;;5070406;28;20789;-72
2022/10/19 06:50:26;;;;;;;9.93;2.50;;;10.60;99.90;;;;;;5076104;28;20163;-74
2022/10/19 06:52:51;;;;;;;4.67;2.63;;;10.70;99.90;;;;;;5074799;28;20387;-72
2022/10/19 06:55:17;;;;;;;4.20;2.87;;;10.70;99.90;;;;;;5074614;28;20277;-72
2022/10/19 06:57:44;;;;;;;5.73;2.20;;;10.80;99.90;;;;;;5072025;28;20262;-73
2022/10/19 07:00:10;;;;;;;8.00;2.43;;;10.80;99.90;;;;;;5056038;28;20167;-74
2022/10/19 07:02:36;;;;;;;6.60;2.00;;;10.80;99.90;;;;;;5071516;28;20498;-74
2022/10/19 07:05:01;;;;;;;1.90;1.80;;;10.90;99.90;;;;;;5053729;28;20477;-72
2022/10/19 07:07:27;;;;;;;12.57;3.20;;;10.90;99.90;;;;;;5055981;28;20170;-74
2022/10/19 07:09:52;;;;;;;7.40;2.97;;;11.00;99.90;;;;;;5055707;28;20183;-74
2022/10/19 07:12:18;;;;;;;11.87;2.40;;;11.10;99.90;;;;;;5055309;28;20182;-72
2022/10/19 07:14:44;;;;;;;4.63;2.60;;;11.10;99.90;;;;;;5074377;28;20210;-72
2022/10/19 07:17:11;;;;;;;3.70;2.97;;;11.20;99.90;;;;;;5075636;28;20206;-71
2022/10/19 07:19:37;;;;;;;3.90;3.00;;;11.20;99.90;;;;;;5075692;28;20166;-73
2022/10/19 07:22:03;;;;;;;6.10;1.90;;;11.20;99.90;;;;;;5074281;28;20432;-75
2022/10/19 07:24:29;;;;;;;4.27;2.37;;;11.30;99.90;;;;;;5074706;28;20615;-74
2022/10/19 07:26:55;;;;;;;6.77;2.77;;;11.30;99.90;;;;;;5074274;28;20432;-74
2022/10/19 07:29:21;;;;;;;2.73;2.53;;;11.30;99.90;;;;;;5075220;28;20174;-75
2022/10/19 07:31:46;;;;;;;6.03;2.20;;;11.30;99.90;;;;;;5075083;28;20881;-76
2022/10/19 07:34:13;;;;;;;8.63;3.03;;;11.40;99.90;;;;;;5074431;28;20178;-69
2022/10/19 07:36:43;;;;;;;3.93;2.60;;;11.40;99.90;;;;;;5073974;28;20201;-69
2022/10/19 07:39:11;;;;;;;18.10;2.50;;;11.40;99.90;;;;;;5075346;28;20383;-69
2022/10/19 07:41:37;;;;;;;3.00;1.90;;;11.50;99.90;;;;;;5073922;28;20428;-73
2022/10/19 07:44:03;;;;;;;4.60;2.03;;;11.60;99.90;;;;;;5073082;28;20379;-74
2022/10/19 07:46:34;;;;;;;3.60;1.70;;;11.50;99.90;;;;;;5074697;28;20435;-72
2022/10/19 07:49:01;;;;;;;4.43;1.80;;;11.30;99.90;;;;;;5074596;28;20899;-72
2022/10/19 07:51:27;;;;;;;5.03;1.50;;;11.20;99.90;;;;;;5074937;28;20383;-69
2022/10/19 07:53:52;;;;;;;2.20;1.60;;;11.30;99.90;;;;;;5073936;28;20848;-72
2022/10/19 07:56:23;;;;;;;3.23;1.80;;;11.40;99.90;;;;;;5061867;28;20444;-72
2022/10/19 07:58:50;;;;;;;2.10;1.17;;;11.40;99.90;;;;;;5054894;28;20213;-72
2022/10/19 08:01:20;;;;;;;5.33;1.30;;;11.30;99.90;;;;;;5053654;28;20384;-72
2022/10/19 08:03:46;;;;;;;2.70;1.30;;;11.40;99.90;;;;;;5054941;28;20427;-74
2022/10/19 08:06:15;;;;;;;2.47;1.43;;;11.40;99.90;;;;;;5061427;28;20423;-72
2022/10/19 08:08:41;;;;;;;2.20;1.23;;;11.50;99.90;;;;;;5074665;28;20404;-72
2022/10/19 08:11:13;;;;;;;3.53;1.43;;;11.60;99.90;;;;;;5074574;28;20472;-69
2022/10/19 08:13:39;;;;;;;2.00;1.47;;;11.70;99.90;;;;;;5064214;28;20465;-76
2022/10/19 08:16:05;;;;;;;1.73;1.10;;;11.70;98.40;;;;;;5053896;28;20436;-73
2022/10/19 08:18:31;;;;;;;2.00;1.13;;;11.70;93.20;;;;;;5062686;28;20439;-73
2022/10/19 08:21:00;;;;;;;3.30;1.20;;;11.70;92.80;;;;;;5074387;28;20411;-71
2022/10/19 08:23:26;;;;;;;2.17;1.43;;;11.70;92.60;;;;;;5072598;28;20379;-71
2022/10/19 08:25:57;;;;;;;1.60;1.20;;;11.80;92.70;;;;;;5073668;28;20442;-69
2022/10/19 08:28:23;;;;;;;2.77;1.33;;;11.90;92.70;;;;;;5074172;28;20554;-73
2022/10/19 08:30:49;;;;;;;2.13;1.50;;;12.00;92.80;;;;;;5074438;28;20422;-72
2022/10/19 08:33:14;;;;;;;1.30;1.00;;;12.10;92.80;;;;;;5073188;28;20181;-69
2022/10/19 08:35:40;;;;;;;3.57;1.20;;;12.20;92.00;;;;;;5073029;28;20205;-70
2022/10/19 08:38:06;;;;;;;1.30;1.20;;;12.10;65.30;;;;;;5074180;28;20213;-72
2022/10/19 08:40:31;;;;;;;2.47;1.20;;;12.10;61.80;;;;;;5072838;28;20273;-69
2022/10/19 08:43:19;;;;;;;2.77;1.10;;;12.20;79.60;;;;;;5073616;28;20245;-71
2022/10/19 08:46:00;;;;;;;1.93;1.30;;;12.30;65.30;;;;;;5070747;28;20198;-70
2022/10/19 08:48:31;;;;;;;10.17;1.87;;;12.40;52.10;;;;;;5053815;28;20413;-69
2022/10/19 08:50:58;;;;;;;1.77;1.30;;;12.50;54.20;;;;;;5053988;28;20392;-70
2022/10/19 08:53:48;;;;;;;2.20;1.40;;;12.60;45.60;;;;;;5053609;28;20384;-70
2022/10/19 08:56:35;;;;;;;1.10;1.00;;;12.70;29.30;;;;;;5053664;28;20471;-69
2022/10/19 08:59:13;;;;;;;3.30;1.80;;;12.90;27.20;;;;;;5052374;28;20945;-70
2022/10/19 09:01:44;;;;;;;0.93;0.80;;;13.10;30.30;;;;;;5063430;28;21029;-70
2022/10/19 09:04:28;;;;;;;1.37;0.90;;;13.20;8.10;;;;;;5072719;28;20420;-70
2022/10/19 09:07:08;;;;;;;1.20;1.00;;;13.30;1.00;;;;;;5073365;28;20424;-70
2022/10/19 09:09:41;;;;;;;5.73;5.30;;;13.30;1.00;;;;;;5073484;28;20363;-72
2022/10/19 09:12:09;;;;;;;2.80;1.57;;;13.30;1.00;;;;;;5073695;28;20405;-72
2022/10/19 09:14:42;;;;;;;4.70;1.50;;;13.20;7.70;;;;;;5071655;28;20428;-72
2022/10/19 09:17:18;;;;;;;1.33;1.23;;;13.20;10.80;;;;;;5073393;28;20478;-72
2022/10/19 09:19:44;;;;;;;2.60;1.20;;;13.30;5.10;;;;;;5072264;28;20404;-73
2022/10/19 09:22:33;;;;;;;1.30;1.00;;;13.30;9.80;;;;;;5073212;28;20793;-72
2022/10/19 09:25:27;;;;;;;1.50;1.30;;;13.40;12.20;;;;;;5071251;28;20965;-72
2022/10/19 09:28:05;;;;;;;1.13;1.00;;;13.50;14.80;;;;;;5070636;28;20499;-71
2022/10/19 09:30:36;;;;;;;1.40;1.00;;;13.50;1.00;;;;;;5072530;28;20523;-71
2022/10/19 09:33:01;;;;;;;5.10;1.07;;;13.50;1.00;;;;;;5073264;28;20428;-73
2022/10/19 09:35:37;;;;;;;1.20;1.10;;;13.50;1.00;;;;;;5071059;28;20468;-71
2022/10/19 09:38:06;;;;;;;1.20;1.00;;;13.40;1.00;;;;;;5073105;28;20178;-73
2022/10/19 09:40:33;;;;;;;1.37;1.00;;;13.30;1.00;;;;;;5071731;28;20395;-71
2022/10/19 09:43:07;;;;;;;4.50;1.10;;;13.30;1.00;;;;;;5061272;28;20516;-73
2022/10/19 09:45:58;;;;;;;1.20;1.10;;;13.30;1.00;;;;;;5052255;28;20428;-72
2022/10/19 09:48:27;;;;;;;0.90;0.77;;;13.40;1.00;;;;;;5047257;28;20430;-71
2022/10/19 09:50:59;;;;;;;1.40;1.20;;;13.50;1.00;;;;;;5051755;28;21013;-71
2022/10/19 09:53:25;;;;;;;2.90;1.13;;;13.80;1.00;;;;;;5068335;28;20441;-72
2022/10/19 09:56:03;;;;;;;0.90;0.80;;;14.20;1.00;;;;;;5057305;28;20455;-73
2022/10/19 09:58:29;;;;;;;6.00;0.87;;;14.60;1.00;;;;;;5071500;28;20846;-71
2022/10/19 10:00:56;;;;;;;1.30;1.20;;;15.00;1.00;;;;;;5073005;28;20420;-72
2022/10/19 10:03:40;;;;;;;1.37;0.90;;;15.10;1.00;;;;;;5071388;28;20458;-73
2022/10/19 10:06:09;;;;;;;1.23;1.00;;;15.40;1.00;;;;;;5072873;28;20489;-71
2022/10/19 10:08:37;;;;;;;2.60;1.00;;;15.80;1.00;;;;;;5071751;28;20425;-72
2022/10/19 10:11:09;;;;;;;1.00;0.77;;;16.00;1.00;;;;;;5061069;28;20441;-72
2022/10/19 10:13:38;;;;;;;2.10;1.00;;;15.90;1.00;;;;;;5051062;28;20520;-72
2022/10/19 10:16:07;;;;;;;1.07;0.90;;;16.20;1.00;;;;;;5052645;28;20491;-71
2022/10/19 10:18:37;;;;;;;3.60;1.33;;;16.20;1.00;;;;;;5052769;28;20405;-72
2022/10/19 10:21:18;;;;;;;3.33;2.43;;;16.20;1.00;;;;;;5052853;28;20393;-72
2022/10/19 10:23:58;;;;;;;0.90;0.70;;;16.10;1.00;;;;;;5069654;28;20421;-72
2022/10/19 10:26:24;;;;;;;2.53;0.90;;;15.70;1.00;;;;;;5052841;28;20416;-71
2022/10/19 10:28:50;;;;;;;2.23;1.23;;;14.90;1.00;;;;;;5052879;28;20416;-71
2022/10/19 10:31:24;;;;;;;1.10;0.80;;;14.40;1.00;;;;;;5052222;28;20401;-72
2022/10/19 10:33:56;;;;;;;0.90;0.80;;;14.10;1.00;;;;;;5052033;28;20166;-72
2022/10/19 10:36:25;;;;;;;1.30;0.70;;;13.90;1.00;;;;;;5052569;28;20810;-72
2022/10/19 10:38:57;;;;;;;1.13;0.97;;;13.90;1.00;;;;;;5066742;28;20428;-71
2022/10/19 10:41:23;;;;;;;0.90;0.73;;;13.90;1.00;;;;;;5076286;28;20401;-73
2022/10/19 10:44:02;;;;;;;0.90;0.80;;;14.00;1.00;;;;;;5075386;28;20401;-72
2022/10/19 10:46:33;;;;;;;0.90;0.70;;;13.90;1.00;;;;;;5076071;28;20934;-72
2022/10/19 10:49:03;;;;;;;1.03;0.90;;;13.80;1.00;;;;;;5076144;28;20401;-72
2022/10/19 10:51:42;;;;;;;1.00;0.90;;;13.80;1.00;;;;;;5070147;28;20486;-73
2022/10/19 10:54:34;;;;;;;0.90;0.70;;;13.80;1.00;;;;;;5053877;28;20400;-71
2022/10/19 10:57:18;;;;;;;0.90;0.80;;;13.70;1.00;;;;;;5055913;28;20456;-72
2022/10/19 11:00:10;;;;;;;1.77;0.80;;;13.80;1.00;;;;;;5055764;28;20733;-72
2022/10/19 11:02:58;;;;;;;0.90;0.80;;;14.00;1.00;;;;;;5055899;28;20399;-72
2022/10/19 11:05:27;;;;;;;1.00;0.90;;;14.00;1.00;;;;;;5054927;28;20425;-73
2022/10/19 11:08:14;;;;;;;0.83;0.73;;;13.90;1.00;;;;;;5073656;28;20416;-71
2022/10/19 11:10:51;;;;;;;1.10;0.80;;;13.80;1.00;;;;;;5056371;28;20411;-72
2022/10/19 11:13:23;;;;;;;0.97;0.87;;;13.70;1.00;;;;;;5054614;28;20380;-72
2022/10/19 11:15:58;;;;;;;2.40;0.70;;;13.60;1.00;;;;;;5053691;28;20551;-73
2022/10/19 11:18:33;;;;;;;1.00;0.80;;;13.60;1.00;;;;;;5071273;28;20450;-71
2022/10/19 11:21:11;;;;;;;1.03;0.93;;;13.60;1.00;;;;;;5059635;28;20424;-72
2022/10/19 11:24:07;;;;;;;0.90;0.80;;;13.60;1.00;;;;;;5074999;28;20807;-78
2022/10/19 11:27:16;;;;;;;0.90;0.80;;;13.80;1.00;;;;;;5073832;28;20873;-70
2022/10/19 11:30:07;;;;;;;1.00;0.90;;;13.90;1.00;;;;;;5074435;28;20400;-71
2022/10/19 11:32:56;;;;;;;1.00;0.90;;;14.00;1.00;;;;;;5075566;28;20504;-70
2022/10/19 11:35:31;;;;;;;1.10;0.80;;;14.00;1.00;;;;;;5063594;28;20548;-70
2022/10/19 11:38:32;;;;;;;1.00;0.90;;;14.10;1.00;;;;;;5057487;28;20435;-74
2022/10/19 11:41:29;;;;;;;1.00;0.80;;;14.40;1.00;;;;;;5071832;28;20420;-75
2022/10/19 11:44:16;;;;;;;1.00;0.73;;;14.50;1.00;;;;;;5072458;28;20411;-72
2022/10/19 11:46:54;;;;;;;1.00;0.80;;;14.50;1.00;;;;;;5075124;28;20424;-74
2022/10/19 11:49:47;;;;;;;2.17;0.80;;;14.40;1.00;;;;;;5073494;28;20510;-73
2022/10/19 11:52:31;;;;;;;0.90;0.80;;;14.30;1.00;;;;;;5073651;28;20507;-70
2022/10/19 11:55:21;;;;;;;1.00;0.90;;;14.20;1.00;;;;;;5070628;28;20385;-71
2022/10/19 11:58:21;;;;;;;1.37;0.90;;;14.20;1.00;;;;;;5054760;28;20421;-70
2022/10/19 12:01:10;;;;;;;1.10;0.70;;;14.40;1.00;;;;;;5054418;28;20391;-72
2022/10/19 12:04:20;;;;;;;1.53;0.87;;;14.20;1.00;;;;;;5054462;28;20441;-77
2022/10/19 12:07:05;;;;;;;0.90;0.70;;;14.30;1.00;;;;;;5039265;28;20452;-73
2022/10/19 12:09:59;;;;;;;5.90;0.90;;;14.50;1.00;;;;;;5053656;28;20507;-70
2022/10/19 12:12:41;;;;;;;1.00;0.80;;;14.40;1.00;;;;;;5053441;28;20769;-72
2022/10/19 12:15:10;;;;;;;1.23;0.87;;;14.50;1.00;;;;;;5069324;28;20433;-72
2022/10/19 12:17:38;;;;;;;1.00;0.80;;;14.50;1.00;;;;;;5053282;28;20485;-69
2022/10/19 12:20:14;;;;;;;0.80;0.70;;;14.10;1.00;;;;;;5052602;28;20406;-71
2022/10/19 12:22:40;;;;;;;1.97;0.73;;;14.00;1.00;;;;;;5054398;28;20420;-72
2022/10/19 12:25:11;;;;;;;4.00;0.70;;;14.10;1.00;;;;;;5053546;28;20417;-71
2022/10/19 12:27:40;;;;;;;1.80;0.80;;;14.40;1.00;;;;;;5054457;28;20405;-69
2022/10/19 12:30:08;;;;;;;1.87;0.80;;;14.50;1.00;;;;;;5054346;28;20389;-69
2022/10/19 12:32:51;;;;;;;1.00;0.80;;;14.60;1.00;;;;;;5054238;28;20920;-70
2022/10/19 12:35:47;;;;;;;1.00;0.90;;;14.70;1.00;;;;;;5057559;28;20453;-72
2022/10/19 12:38:29;;;;;;;2.20;0.87;;;14.60;1.00;;;;;;5054018;28;20833;-73
2022/10/19 12:41:23;;;;;;;2.17;0.80;;;14.70;1.00;;;;;;5054062;28;20455;-72
2022/10/19 12:44:22;;;;;;;0.90;0.60;;;14.60;1.00;;;;;;5053632;28;20416;-70
2022/10/19 12:46:59;;;;;;;2.33;0.73;;;14.70;1.00;;;;;;5053916;28;20421;-71
2022/10/19 12:49:37;;;;;;;0.90;0.60;;;14.80;1.00;;;;;;5069452;28;20431;-71
2022/10/19 12:52:03;;;;;;;0.90;0.60;;;15.30;1.00;;;;;;5073824;28;20422;-72
2022/10/19 12:54:32;;;;;;;1.00;0.70;;;15.60;1.00;;;;;;5072818;28;20409;-73
2022/10/19 12:57:00;;;;;;;0.80;0.60;;;16.40;1.00;;;;;;5073588;28;20452;-70
2022/10/19 12:59:32;;;;;;;0.90;0.60;;;16.70;1.00;;;;;;5073469;28;20950;-69
2022/10/19 13:01:59;;;;;;;0.80;0.60;;;15.80;1.00;;;;;;5072788;28;20400;-72
2022/10/19 13:04:31;;;;;;;1.60;0.80;;;14.90;1.00;;;;;;5053747;28;20473;-72
2022/10/19 13:06:57;;;;;;;1.37;0.80;;;14.60;1.00;;;;;;5054207;28;20996;-71
2022/10/19 13:09:30;;;;;;;0.90;0.70;;;14.50;1.00;;;;;;5053571;28;20433;-72